Dades meteomassalio
Diari Summary for Gener 15, 2017 Units:  Metric    English   Both
« Previous Day
Next Day »
Diari Semanal Mensual Anual Personalitzat
  Maxima: Minima: Mijana:
Temperatura: 11.3 °C 4.0 °C 6.7 °C
Rosada: 3.9 °C 0.7 °C 2.2 °C
Humitat: 83 % 52 % 73 %
Velocitat del vent: 66.6 km/h 16.7 km/h 37.1 km/h
Racha vent: 66.6 km/h - -
Vent:- - NW
Pressio: 1027.3 hPa 1022.6 hPa -
Pluja: 0.0 mm    
Historical Graphs
 
 
Tabular Data for Gener 15, 2017
Time Temperature Dew Point Pressure Wind Wind Speed Wind Gust Humidity Rainfall Rate (Hourly) solar Conditions
00:01 4.2 °C 0.7 °C 1027.3 hPa NW 20.9 km/h 20.9 km/h 78 % 0.0 mm 0.0 W/m2 CLR
00:06 4.2 °C 0.7 °C 1027.0 hPa NW 33.3 km/h 33.3 km/h 78 % 0.0 mm 0.0 W/m2 CLR
00:11 4.3 °C 0.8 °C 1027.0 hPa NW 31.5 km/h 31.5 km/h 78 % 0.0 mm 0.0 W/m2 CLR
00:16 4.3 °C 0.8 °C 1027.0 hPa NW 40.7 km/h 40.7 km/h 78 % 0.0 mm 0.0 W/m2 CLR
00:21 4.3 °C 0.9 °C 1027.0 hPa NW 27.8 km/h 27.8 km/h 79 % 0.0 mm 0.0 W/m2 CLR
00:26 4.3 °C 0.9 °C 1027.0 hPa NW 29.6 km/h 29.6 km/h 79 % 0.0 mm 0.0 W/m2 CLR
00:31 4.3 °C 1.0 °C 1027.3 hPa NW 27.8 km/h 27.8 km/h 79 % 0.0 mm 0.0 W/m2 CLR
00:36 4.2 °C 0.9 °C 1027.3 hPa NW 25.9 km/h 25.9 km/h 79 % 0.0 mm 0.0 W/m2 CLR
00:41 4.3 °C 0.9 °C 1027.3 hPa NW 29.6 km/h 29.6 km/h 79 % 0.0 mm 0.0 W/m2 CLR
00:46 4.3 °C 0.9 °C 1027.3 hPa NW 31.5 km/h 31.5 km/h 79 % 0.0 mm 0.0 W/m2 CLR
00:51 4.3 °C 1.1 °C 1027.3 hPa NW 25.9 km/h 25.9 km/h 80 % 0.0 mm 0.0 W/m2 CLR
00:56 4.2 °C 1.1 °C 1027.0 hPa NW 24.1 km/h 24.1 km/h 80 % 0.0 mm 0.0 W/m2 CLR
01:01 4.2 °C 1.2 °C 1027.0 hPa NW 25.9 km/h 25.9 km/h 81 % 0.0 mm 0.0 W/m2 CLR
01:06 4.2 °C 1.2 °C 1027.0 hPa NW 29.6 km/h 29.6 km/h 81 % 0.0 mm 0.0 W/m2 CLR
01:11 4.3 °C 1.1 °C 1027.0 hPa NW 24.1 km/h 24.1 km/h 80 % 0.0 mm 0.0 W/m2 CLR
01:16 4.2 °C 1.2 °C 1026.6 hPa NW 31.5 km/h 31.5 km/h 81 % 0.0 mm 0.0 W/m2 CLR
01:21 4.3 °C 1.1 °C 1026.6 hPa NW 22.2 km/h 22.2 km/h 80 % 0.0 mm 0.0 W/m2 CLR
01:26 4.3 °C 1.1 °C 1026.6 hPa NW 32.2 km/h 32.2 km/h 80 % 0.0 mm 0.0 W/m2 CLR
01:31 4.3 °C 1.2 °C 1027.0 hPa WNW 27.8 km/h 27.8 km/h 80 % 0.0 mm 0.0 W/m2 CLR
01:36 4.3 °C 1.2 °C 1026.6 hPa NW 29.6 km/h 29.6 km/h 80 % 0.0 mm 0.0 W/m2 CLR
01:41 4.3 °C 1.2 °C 1026.6 hPa NW 24.1 km/h 24.1 km/h 80 % 0.0 mm 0.0 W/m2 CLR
01:46 4.3 °C 1.1 °C 1026.6 hPa WNW 29.0 km/h 29.0 km/h 80 % 0.0 mm 0.0 W/m2 CLR
01:51 4.3 °C 1.2 °C 1026.6 hPa WNW 33.3 km/h 33.3 km/h 80 % 0.0 mm 0.0 W/m2 CLR
01:56 4.4 °C 1.1 °C 1026.6 hPa WNW 31.5 km/h 31.5 km/h 79 % 0.0 mm 0.0 W/m2 CLR
02:01 4.4 °C 1.1 °C 1026.6 hPa WNW 24.1 km/h 25.7 km/h 79 % 0.0 mm 0.0 W/m2 CLR
02:06 4.4 °C 1.1 °C 1026.6 hPa WNW 33.3 km/h 33.3 km/h 79 % 0.0 mm 0.0 W/m2 CLR
02:11 4.5 °C 1.2 °C 1026.6 hPa NW 37.0 km/h 37.0 km/h 79 % 0.0 mm 0.0 W/m2 CLR
02:16 4.6 °C 1.1 °C 1026.6 hPa NW 33.8 km/h 33.8 km/h 78 % 0.0 mm 0.0 W/m2 CLR
02:21 4.6 °C 1.3 °C 1026.6 hPa NW 27.8 km/h 27.8 km/h 79 % 0.0 mm 0.0 W/m2 CLR
02:26 4.6 °C 1.2 °C 1026.6 hPa NW 29.6 km/h 29.6 km/h 79 % 0.0 mm 0.0 W/m2 CLR
02:31 4.6 °C 1.2 °C 1026.3 hPa NW 31.5 km/h 31.5 km/h 79 % 0.0 mm 0.0 W/m2 CLR
02:36 4.6 °C 1.2 °C 1026.3 hPa NW 31.5 km/h 31.5 km/h 79 % 0.0 mm 0.0 W/m2 CLR
02:41 4.5 °C 1.2 °C 1026.3 hPa NW 25.9 km/h 27.0 km/h 79 % 0.0 mm 0.0 W/m2 CLR
02:46 4.6 °C 1.2 °C 1026.3 hPa NW 24.1 km/h 25.9 km/h 79 % 0.0 mm 0.0 W/m2 CLR
02:51 4.6 °C 1.4 °C 1026.3 hPa NW 24.1 km/h 24.1 km/h 80 % 0.0 mm 0.0 W/m2 CLR
02:56 4.5 °C 1.3 °C 1026.3 hPa NW 27.8 km/h 27.8 km/h 80 % 0.0 mm 0.0 W/m2 CLR
03:01 4.4 °C 1.2 °C 1026.6 hPa NW 25.9 km/h 25.9 km/h 80 % 0.0 mm 0.0 W/m2 CLR
03:06 4.3 °C 1.2 °C 1026.3 hPa NW 18.5 km/h 18.5 km/h 80 % 0.0 mm 0.0 W/m2 CLR
03:11 4.3 °C 1.3 °C 1026.3 hPa NW 35.2 km/h 35.2 km/h 81 % 0.0 mm 0.0 W/m2 CLR
03:16 4.3 °C 1.3 °C 1026.3 hPa NW 29.0 km/h 29.0 km/h 81 % 0.0 mm 0.0 W/m2 CLR
03:21 4.3 °C 1.3 °C 1026.3 hPa NW 31.5 km/h 31.5 km/h 81 % 0.0 mm 0.0 W/m2 CLR
03:26 4.3 °C 1.3 °C 1026.3 hPa WNW 33.3 km/h 33.3 km/h 81 % 0.0 mm 0.0 W/m2 CLR
03:31 4.3 °C 1.3 °C 1026.3 hPa NW 31.5 km/h 31.5 km/h 81 % 0.0 mm 0.0 W/m2 CLR
03:37 4.3 °C 1.3 °C 1026.3 hPa NW 25.9 km/h 25.9 km/h 81 % 0.0 mm 0.0 W/m2 CLR
03:42 4.2 °C 1.2 °C 1026.3 hPa NW 24.1 km/h 24.1 km/h 81 % 0.0 mm 0.0 W/m2 CLR
03:47 4.1 °C 1.2 °C 1026.3 hPa NW 16.7 km/h 16.7 km/h 81 % 0.0 mm 0.0 W/m2 CLR
03:52 4.1 °C 1.3 °C 1026.3 hPa NW 20.9 km/h 20.9 km/h 82 % 0.0 mm 0.0 W/m2 CLR
03:57 4.2 °C 1.4 °C 1026.3 hPa NW 24.1 km/h 24.1 km/h 82 % 0.0 mm 0.0 W/m2 CLR
04:02 4.3 °C 1.5 °C 1026.3 hPa NW 25.9 km/h 25.9 km/h 82 % 0.0 mm 0.0 W/m2 CLR
04:07 4.2 °C 1.4 °C 1026.0 hPa NW 22.2 km/h 22.7 km/h 82 % 0.0 mm 0.0 W/m2 CLR
04:12 4.2 °C 1.4 °C 1026.0 hPa NW 24.1 km/h 24.1 km/h 82 % 0.0 mm 0.0 W/m2 CLR
04:17 4.1 °C 1.3 °C 1026.0 hPa NW 20.9 km/h 21.7 km/h 82 % 0.0 mm 0.0 W/m2 CLR
04:22 4.0 °C 1.2 °C 1025.6 hPa NW 18.5 km/h 18.5 km/h 82 % 0.0 mm 0.0 W/m2 CLR
04:27 4.1 °C 1.5 °C 1025.6 hPa NW 37.0 km/h 37.0 km/h 83 % 0.0 mm 0.0 W/m2 CLR
04:32 4.2 °C 1.4 °C 1025.6 hPa NW 31.5 km/h 31.5 km/h 82 % 0.0 mm 0.0 W/m2 CLR
04:37 4.2 °C 1.4 °C 1025.6 hPa NW 24.1 km/h 24.1 km/h 82 % 0.0 mm 0.0 W/m2 CLR
04:42 4.3 °C 1.5 °C 1025.6 hPa WNW 37.0 km/h 37.0 km/h 82 % 0.0 mm 0.0 W/m2 CLR
04:47 4.2 °C 1.4 °C 1025.6 hPa WNW 24.1 km/h 24.1 km/h 82 % 0.0 mm 0.0 W/m2 CLR
04:52 4.2 °C 1.4 °C 1025.6 hPa WNW 25.9 km/h 25.9 km/h 82 % 0.0 mm 0.0 W/m2 CLR
04:57 4.2 °C 1.4 °C 1025.6 hPa NW 24.1 km/h 24.1 km/h 82 % 0.0 mm 0.0 W/m2 CLR
05:02 4.2 °C 1.4 °C 1025.3 hPa NW 31.5 km/h 31.5 km/h 82 % 0.0 mm 0.0 W/m2 CLR
05:07 4.2 °C 1.4 °C 1025.3 hPa NW 25.9 km/h 25.9 km/h 82 % 0.0 mm 0.0 W/m2 CLR
05:12 4.2 °C 1.4 °C 1025.3 hPa WNW 27.8 km/h 27.8 km/h 82 % 0.0 mm 0.0 W/m2 CLR
05:17 4.2 °C 1.4 °C 1025.3 hPa NW 20.4 km/h 20.4 km/h 82 % 0.0 mm 0.0 W/m2 CLR
05:22 4.2 °C 1.4 °C 1025.3 hPa WNW 31.5 km/h 31.5 km/h 82 % 0.0 mm 0.0 W/m2 CLR
05:27 4.3 °C 1.5 °C 1025.3 hPa NW 24.1 km/h 24.1 km/h 82 % 0.0 mm 0.0 W/m2 CLR
05:32 4.3 °C 1.6 °C 1025.3 hPa NW 31.5 km/h 31.5 km/h 82 % 0.0 mm 0.0 W/m2 CLR
05:37 4.3 °C 1.6 °C 1025.3 hPa WNW 30.6 km/h 30.6 km/h 82 % 0.0 mm 0.0 W/m2 CLR
05:42 4.3 °C 1.5 °C 1025.3 hPa NW 33.3 km/h 33.3 km/h 82 % 0.0 mm 0.0 W/m2 CLR
05:47 4.4 °C 1.6 °C 1025.3 hPa NW 38.9 km/h 38.9 km/h 82 % 0.0 mm 0.0 W/m2 CLR
05:52 4.3 °C 1.6 °C 1025.3 hPa NW 31.5 km/h 31.5 km/h 82 % 0.0 mm 0.0 W/m2 CLR
05:57 4.3 °C 1.7 °C 1025.3 hPa NW 33.3 km/h 33.3 km/h 83 % 0.0 mm 0.0 W/m2 CLR
06:02 4.2 °C 1.6 °C 1024.9 hPa NW 31.5 km/h 31.5 km/h 83 % 0.0 mm 0.0 W/m2 CLR
06:07 4.2 °C 1.6 °C 1024.9 hPa NW 33.3 km/h 33.3 km/h 83 % 0.0 mm 0.0 W/m2 CLR
06:12 4.1 °C 1.5 °C 1024.9 hPa NW 27.8 km/h 27.8 km/h 83 % 0.0 mm 0.0 W/m2 CLR
06:17 4.1 °C 1.5 °C 1024.9 hPa NW 31.5 km/h 31.5 km/h 83 % 0.0 mm 0.0 W/m2 CLR
06:22 4.2 °C 1.6 °C 1024.9 hPa NW 31.5 km/h 31.5 km/h 83 % 0.0 mm 0.0 W/m2 CLR
06:27 4.2 °C 1.6 °C 1025.3 hPa WNW 33.3 km/h 33.3 km/h 83 % 0.0 mm 0.0 W/m2 CLR
06:32 4.1 °C 1.5 °C 1024.9 hPa NW 35.2 km/h 35.2 km/h 83 % 0.0 mm 0.0 W/m2 CLR
06:37 4.2 °C 1.6 °C 1025.3 hPa NW 38.9 km/h 38.9 km/h 83 % 0.0 mm 0.0 W/m2 CLR
06:42 4.3 °C 1.7 °C 1025.3 hPa NW 31.5 km/h 31.5 km/h 83 % 0.0 mm 0.0 W/m2 CLR
06:47 4.2 °C 1.6 °C 1025.3 hPa NW 29.6 km/h 29.6 km/h 83 % 0.0 mm 0.0 W/m2 CLR
06:52 4.2 °C 1.6 °C 1025.3 hPa NW 24.1 km/h 24.1 km/h 83 % 0.0 mm 0.0 W/m2 CLR
06:57 4.3 °C 1.7 °C 1024.9 hPa WNW 38.9 km/h 38.9 km/h 83 % 0.0 mm 0.0 W/m2 CLR
07:03 4.3 °C 1.7 °C 1024.9 hPa NW 31.5 km/h 31.5 km/h 83 % 0.0 mm 0.0 W/m2 CLR
07:08 4.3 °C 1.7 °C 1025.3 hPa NW 35.2 km/h 35.2 km/h 83 % 0.0 mm 0.0 W/m2 CLR
07:13 4.3 °C 1.7 °C 1024.9 hPa NW 35.2 km/h 35.2 km/h 83 % 0.0 mm 0.0 W/m2 CLR
07:18 4.2 °C 1.6 °C 1024.9 hPa NW 29.6 km/h 29.6 km/h 83 % 0.0 mm 0.0 W/m2 CLR
07:23 4.2 °C 1.6 °C 1025.3 hPa NW 31.5 km/h 31.5 km/h 83 % 0.0 mm 0.0 W/m2 CLR
07:28 4.3 °C 1.7 °C 1024.9 hPa NW 31.5 km/h 31.5 km/h 83 % 0.0 mm 0.0 W/m2 CLR
07:33 4.3 °C 1.7 °C 1024.9 hPa NW 31.5 km/h 31.5 km/h 83 % 0.0 mm 0.0 W/m2 CLR
07:38 4.3 °C 1.7 °C 1024.9 hPa NW 31.5 km/h 31.5 km/h 83 % 0.0 mm 0.0 W/m2 CLR
07:43 4.4 °C 1.8 °C 1024.9 hPa NW 38.9 km/h 38.9 km/h 83 % 0.0 mm 0.0 W/m2 CLR
07:48 4.4 °C 1.8 °C 1024.9 hPa NW 35.2 km/h 35.2 km/h 83 % 0.0 mm 0.0 W/m2 CLR
07:53 4.5 °C 1.9 °C 1024.9 hPa NW 37.0 km/h 37.0 km/h 83 % 0.0 mm 0.0 W/m2 CLR
07:58 4.6 °C 1.8 °C 1024.9 hPa NW 33.3 km/h 33.3 km/h 82 % 0.0 mm 0.0 W/m2 CLR
08:03 4.7 °C 1.8 °C 1025.3 hPa NW 44.4 km/h 44.4 km/h 82 % 0.0 mm 0.0 W/m2 CLR
08:08 4.8 °C 1.9 °C 1025.3 hPa NW 31.5 km/h 31.5 km/h 82 % 0.0 mm 0.0 W/m2 CLR
08:13 4.8 °C 2.0 °C 1025.3 hPa NW 37.0 km/h 37.0 km/h 82 % 0.0 mm 5.0 W/m2 CLR
08:18 4.9 °C 2.1 °C 1024.9 hPa NW 37.0 km/h 37.0 km/h 82 % 0.0 mm 5.0 W/m2 CLR
08:23 4.9 °C 2.1 °C 1024.9 hPa NW 38.9 km/h 38.9 km/h 82 % 0.0 mm 5.0 W/m2 BKN
08:28 5.0 °C 2.2 °C 1024.9 hPa NW 38.6 km/h 38.6 km/h 82 % 0.0 mm 7.0 W/m2 BKN
08:33 5.1 °C 2.2 °C 1024.9 hPa NW 35.2 km/h 35.2 km/h 82 % 0.0 mm 11.0 W/m2 BKN
08:38 5.0 °C 2.2 °C 1024.9 hPa NW 30.6 km/h 30.6 km/h 82 % 0.0 mm 16.0 W/m2 BKN
08:43 5.1 °C 2.2 °C 1024.9 hPa NW 31.5 km/h 31.5 km/h 82 % 0.0 mm 23.0 W/m2 BKN
08:48 5.1 °C 2.3 °C 1024.9 hPa NW 29.0 km/h 29.0 km/h 82 % 0.0 mm 28.0 W/m2 BKN
08:53 5.1 °C 2.3 °C 1024.9 hPa NW 42.6 km/h 42.6 km/h 82 % 0.0 mm 33.0 W/m2 BKN
08:58 5.2 °C 2.2 °C 1024.9 hPa NW 41.8 km/h 41.8 km/h 81 % 0.0 mm 39.0 W/m2 BKN
09:03 5.3 °C 2.3 °C 1024.9 hPa NW 38.9 km/h 38.9 km/h 81 % 0.0 mm 42.0 W/m2 BKN
09:08 5.3 °C 2.3 °C 1024.9 hPa NW 42.6 km/h 42.6 km/h 81 % 0.0 mm 46.0 W/m2 BKN
09:13 5.3 °C 2.3 °C 1024.9 hPa NW 31.5 km/h 31.5 km/h 81 % 0.0 mm 51.0 W/m2 BKN
09:18 5.3 °C 2.3 °C 1024.9 hPa NW 42.6 km/h 42.6 km/h 81 % 0.0 mm 54.0 W/m2 BKN
09:23 5.4 °C 2.4 °C 1025.3 hPa NW 35.2 km/h 35.2 km/h 81 % 0.0 mm 56.0 W/m2 BKN
09:28 5.4 °C 2.4 °C 1025.3 hPa NW 37.0 km/h 37.0 km/h 81 % 0.0 mm 62.0 W/m2 BKN
09:33 5.6 °C 2.4 °C 1025.3 hPa NW 42.6 km/h 42.6 km/h 80 % 0.0 mm 128.0 W/m2 BKN
09:38 5.8 °C 2.6 °C 1025.3 hPa NW 37.0 km/h 37.0 km/h 80 % 0.0 mm 134.0 W/m2 BKN
09:43 5.9 °C 2.5 °C 1025.3 hPa NW 42.6 km/h 42.6 km/h 79 % 0.0 mm 118.0 W/m2 BKN
09:48 5.9 °C 2.3 °C 1024.9 hPa NNW 35.2 km/h 35.2 km/h 78 % 0.0 mm 120.0 W/m2 BKN
09:53 6.0 °C 2.4 °C 1025.3 hPa NW 40.7 km/h 40.7 km/h 78 % 0.0 mm 153.0 W/m2 BKN
09:58 6.2 °C 2.7 °C 1025.3 hPa NW 31.5 km/h 31.5 km/h 78 % 0.0 mm 139.0 W/m2 BKN
10:03 6.3 °C 2.6 °C 1025.3 hPa NW 46.3 km/h 46.3 km/h 77 % 0.0 mm 132.0 W/m2 BKN
10:08 6.5 °C 2.6 °C 1025.3 hPa NW 40.7 km/h 40.7 km/h 76 % 0.0 mm 137.0 W/m2 BKN
10:13 6.6 °C 2.6 °C 1025.3 hPa NW 33.8 km/h 33.8 km/h 76 % 0.0 mm 186.0 W/m2 BKN
10:18 6.7 °C 2.8 °C 1025.3 hPa NW 42.6 km/h 42.6 km/h 76 % 0.0 mm 269.0 W/m2 SCT
10:23 6.9 °C 2.8 °C 1025.3 hPa NW 44.4 km/h 44.4 km/h 75 % 0.0 mm 251.0 W/m2 SCT
10:28 7.1 °C 2.7 °C 1025.3 hPa NW 40.7 km/h 40.7 km/h 74 % 0.0 mm 299.0 W/m2 FEW
10:33 7.2 °C 2.7 °C 1025.3 hPa NW 42.6 km/h 42.6 km/h 73 % 0.0 mm 304.0 W/m2 FEW
10:38 7.3 °C 2.6 °C 1025.3 hPa NW 33.3 km/h 33.3 km/h 72 % 0.0 mm 267.0 W/m2 FEW
10:43 7.4 °C 2.7 °C 1025.3 hPa NW 37.0 km/h 37.0 km/h 72 % 0.0 mm 313.0 W/m2 SCT
10:48 7.4 °C 2.7 °C 1025.3 hPa NW 42.6 km/h 42.6 km/h 72 % 0.0 mm 309.0 W/m2 SCT
10:53 7.5 °C 2.6 °C 1025.3 hPa NNW 61.1 km/h 61.1 km/h 71 % 0.0 mm 283.0 W/m2 FEW
10:58 7.4 °C 2.4 °C 1025.3 hPa NNW 42.6 km/h 42.6 km/h 71 % 0.0 mm 338.0 W/m2 SCT
11:03 7.7 °C 2.7 °C 1025.3 hPa NNW 41.8 km/h 41.8 km/h 71 % 0.0 mm 350.0 W/m2 FEW
11:08 7.7 °C 2.8 °C 1025.3 hPa NNW 42.6 km/h 42.6 km/h 71 % 0.0 mm 359.0 W/m2 FEW
11:13 7.8 °C 2.7 °C 1025.3 hPa NW 50.0 km/h 50.0 km/h 70 % 0.0 mm 294.0 W/m2 FEW
11:18 7.8 °C 2.7 °C 1025.3 hPa NNW 49.9 km/h 49.9 km/h 70 % 0.0 mm 350.0 W/m2 FEW
11:23 7.9 °C 2.8 °C 1025.3 hPa NNW 55.5 km/h 55.5 km/h 70 % 0.0 mm 374.0 W/m2 FEW
11:28 7.9 °C 2.8 °C 1025.3 hPa NW 56.3 km/h 56.3 km/h 70 % 0.0 mm 381.0 W/m2 FEW
11:33 8.0 °C 2.8 °C 1025.3 hPa NW 57.4 km/h 57.4 km/h 70 % 0.0 mm 385.0 W/m2 FEW
11:38 8.1 °C 2.8 °C 1025.3 hPa NW 48.1 km/h 48.1 km/h 69 % 0.0 mm 396.0 W/m2 FEW
11:43 8.2 °C 2.9 °C 1025.3 hPa NNW 53.7 km/h 53.7 km/h 69 % 0.0 mm 401.0 W/m2 FEW
11:48 8.4 °C 3.0 °C 1024.9 hPa NW 44.4 km/h 44.4 km/h 69 % 0.0 mm 408.0 W/m2 FEW
11:53 8.7 °C 3.1 °C 1024.9 hPa NNW 37.0 km/h 37.0 km/h 68 % 0.0 mm 413.0 W/m2 FEW
11:58 8.8 °C 2.8 °C 1024.9 hPa NNW 44.4 km/h 44.4 km/h 66 % 0.0 mm 417.0 W/m2 FEW
12:03 8.8 °C 2.8 °C 1024.9 hPa NNW 50.0 km/h 50.0 km/h 66 % 0.0 mm 411.0 W/m2 FEW
12:08 8.8 °C 2.8 °C 1024.9 hPa NNW 46.3 km/h 46.3 km/h 66 % 0.0 mm 429.0 W/m2 FEW
12:13 9.1 °C 2.8 °C 1024.9 hPa NNW 45.1 km/h 45.1 km/h 65 % 0.0 mm 432.0 W/m2 FEW
12:18 9.2 °C 2.9 °C 1024.9 hPa NNW 44.4 km/h 44.4 km/h 65 % 0.0 mm 436.0 W/m2 CLR
12:23 9.3 °C 3.1 °C 1024.9 hPa NNW 33.8 km/h 33.9 km/h 65 % 0.0 mm 441.0 W/m2 CLR
12:28 9.2 °C 3.0 °C 1024.6 hPa NNW 57.4 km/h 57.4 km/h 65 % 0.0 mm 445.0 W/m2 CLR
12:34 9.2 °C 2.9 °C 1024.6 hPa NNW 38.6 km/h 38.6 km/h 65 % 0.0 mm 446.0 W/m2 CLR
12:39 9.2 °C 3.0 °C 1024.6 hPa NW 50.0 km/h 50.0 km/h 65 % 0.0 mm 450.0 W/m2 CLR
12:44 9.4 °C 3.2 °C 1024.6 hPa NW 31.5 km/h 31.5 km/h 65 % 0.0 mm 455.0 W/m2 CLR
12:49 9.5 °C 3.0 °C 1024.6 hPa NW 48.1 km/h 48.1 km/h 64 % 0.0 mm 454.0 W/m2 CLR
12:54 9.4 °C 2.9 °C 1024.6 hPa NW 55.5 km/h 55.5 km/h 64 % 0.0 mm 459.0 W/m2 CLR
12:59 9.3 °C 2.9 °C 1024.6 hPa NNW 51.8 km/h 51.8 km/h 64 % 0.0 mm 464.0 W/m2 CLR
13:04 9.4 °C 2.9 °C 1024.6 hPa NNW 53.1 km/h 53.1 km/h 64 % 0.0 mm 457.0 W/m2 CLR
13:09 9.3 °C 2.9 °C 1024.3 hPa NNW 31.5 km/h 31.5 km/h 64 % 0.0 mm 462.0 W/m2 CLR
13:14 9.7 °C 3.2 °C 1024.3 hPa NW 40.7 km/h 40.7 km/h 64 % 0.0 mm 464.0 W/m2 CLR
13:19 9.7 °C 3.2 °C 1024.3 hPa NW 42.6 km/h 42.6 km/h 64 % 0.0 mm 466.0 W/m2 CLR
13:24 9.8 °C 3.1 °C 1023.9 hPa NW 38.9 km/h 38.9 km/h 63 % 0.0 mm 434.0 W/m2 CLR
13:29 9.9 °C 3.2 °C 1023.9 hPa NW 41.8 km/h 41.8 km/h 63 % 0.0 mm 464.0 W/m2 CLR
13:34 10.1 °C 3.3 °C 1023.6 hPa NW 33.3 km/h 33.3 km/h 63 % 0.0 mm 468.0 W/m2 CLR
13:39 10.3 °C 3.6 °C 1023.6 hPa NW 33.8 km/h 33.8 km/h 63 % 0.0 mm 445.0 W/m2 CLR
13:44 10.3 °C 3.1 °C 1023.6 hPa NW 42.6 km/h 42.6 km/h 61 % 0.0 mm 452.0 W/m2 CLR
13:49 10.4 °C 2.9 °C 1023.2 hPa NW 35.2 km/h 35.2 km/h 60 % 0.0 mm 450.0 W/m2 CLR
13:54 10.4 °C 3.0 °C 1023.2 hPa NW 35.2 km/h 35.2 km/h 60 % 0.0 mm 454.0 W/m2 CLR
13:59 10.7 °C 3.0 °C 1023.2 hPa NW 37.0 km/h 37.0 km/h 59 % 0.0 mm 452.0 W/m2 CLR
14:04 10.8 °C 2.9 °C 1022.9 hPa NW 46.3 km/h 46.3 km/h 58 % 0.0 mm 446.0 W/m2 CLR
14:09 10.7 °C 2.5 °C 1023.2 hPa NW 38.9 km/h 38.9 km/h 57 % 0.0 mm 450.0 W/m2 CLR
14:14 10.8 °C 2.7 °C 1022.9 hPa NW 40.7 km/h 40.7 km/h 57 % 0.0 mm 441.0 W/m2 CLR
14:19 11.1 °C 2.6 °C 1022.9 hPa NW 30.6 km/h 30.6 km/h 56 % 0.0 mm 438.0 W/m2 CLR
14:24 11.2 °C 2.2 °C 1022.6 hPa NW 44.4 km/h 44.4 km/h 54 % 0.0 mm 373.0 W/m2 CLR
14:29 11.2 °C 1.7 °C 1022.9 hPa NW 44.4 km/h 44.4 km/h 52 % 0.0 mm 385.0 W/m2 CLR
14:34 11.2 °C 1.9 °C 1022.9 hPa NW 50.0 km/h 50.0 km/h 53 % 0.0 mm 483.0 W/m2 CLR
14:39 11.3 °C 2.1 °C 1022.9 hPa NNW 42.6 km/h 42.6 km/h 53 % 0.0 mm 443.0 W/m2 CLR
14:44 11.2 °C 2.0 °C 1022.9 hPa NNW 37.0 km/h 37.0 km/h 53 % 0.0 mm 452.0 W/m2 CLR
14:49 11.2 °C 1.9 °C 1023.2 hPa NNW 53.7 km/h 53.7 km/h 53 % 0.0 mm 362.0 W/m2 CLR
14:54 10.9 °C 1.9 °C 1023.2 hPa NW 40.7 km/h 40.7 km/h 54 % 0.0 mm 332.0 W/m2 CLR
14:59 10.8 °C 1.9 °C 1023.2 hPa NW 48.1 km/h 48.1 km/h 54 % 0.0 mm 313.0 W/m2 CLR
15:04 10.7 °C 2.1 °C 1023.2 hPa NW 42.6 km/h 42.6 km/h 55 % 0.0 mm 334.0 W/m2 CLR
15:09 10.6 °C 1.7 °C 1023.2 hPa NW 54.7 km/h 54.7 km/h 54 % 0.0 mm 229.0 W/m2 CLR
15:14 10.6 °C 1.6 °C 1023.2 hPa NW 37.0 km/h 37.0 km/h 54 % 0.0 mm 220.0 W/m2 CLR
15:19 10.6 °C 1.7 °C 1023.2 hPa NW 55.5 km/h 55.5 km/h 54 % 0.0 mm 320.0 W/m2 CLR
15:24 10.4 °C 1.4 °C 1023.6 hPa NW 66.6 km/h 66.6 km/h 54 % 0.0 mm 223.0 W/m2 FEW
15:29 10.3 °C 1.4 °C 1023.6 hPa NW 46.3 km/h 46.3 km/h 54 % 0.0 mm 229.0 W/m2 SCT
15:35 10.4 °C 1.5 °C 1023.2 hPa NW 37.0 km/h 38.1 km/h 54 % 0.0 mm 345.0 W/m2 SCT
15:39 10.3 °C 1.4 °C 1023.6 hPa NW 53.7 km/h 53.7 km/h 54 % 0.0 mm 179.0 W/m2 FEW
15:45 10.3 °C 1.6 °C 1023.6 hPa NW 46.3 km/h 46.3 km/h 55 % 0.0 mm 315.0 W/m2 CLR
15:50 10.4 °C 1.8 °C 1023.6 hPa NW 48.1 km/h 48.1 km/h 55 % 0.0 mm 315.0 W/m2 CLR
15:55 10.6 °C 1.7 °C 1023.6 hPa NW 53.7 km/h 53.7 km/h 54 % 0.0 mm 387.0 W/m2 CLR
16:00 10.6 °C 1.6 °C 1023.6 hPa NW 51.8 km/h 51.8 km/h 54 % 0.0 mm 323.0 W/m2 CLR
16:05 10.6 °C 1.6 °C 1023.6 hPa NW 46.3 km/h 46.3 km/h 54 % 0.0 mm 306.0 W/m2 CLR
16:10 10.5 °C 1.6 °C 1023.9 hPa NW 48.1 km/h 48.1 km/h 54 % 0.0 mm 274.0 W/m2 CLR
16:15 10.3 °C 1.7 °C 1023.9 hPa NW 40.7 km/h 40.7 km/h 55 % 0.0 mm 258.0 W/m2 CLR
16:20 10.1 °C 1.4 °C 1023.9 hPa NW 50.0 km/h 50.0 km/h 55 % 0.0 mm 213.0 W/m2 CLR
16:25 10.0 °C 1.6 °C 1023.9 hPa NW 40.7 km/h 40.7 km/h 56 % 0.0 mm 197.0 W/m2 CLR
16:30 9.9 °C 1.5 °C 1023.9 hPa NNW 46.3 km/h 46.3 km/h 56 % 0.0 mm 172.0 W/m2 CLR
16:35 9.9 °C 1.8 °C 1023.9 hPa NNW 46.3 km/h 46.3 km/h 57 % 0.0 mm 120.0 W/m2 CLR
16:40 9.7 °C 1.6 °C 1023.9 hPa NW 46.3 km/h 46.3 km/h 57 % 0.0 mm 144.0 W/m2 CLR
16:45 9.6 °C 1.7 °C 1023.9 hPa NW 50.0 km/h 50.0 km/h 58 % 0.0 mm 144.0 W/m2 CLR
16:50 9.5 °C 1.9 °C 1023.9 hPa NW 51.5 km/h 51.5 km/h 59 % 0.0 mm 111.0 W/m2 CLR
16:55 9.4 °C 1.8 °C 1023.9 hPa NW 64.8 km/h 64.8 km/h 59 % 0.0 mm 97.0 W/m2 CLR
17:00 9.3 °C 1.7 °C 1023.9 hPa NW 50.0 km/h 50.0 km/h 59 % 0.0 mm 83.0 W/m2 CLR
17:05 9.2 °C 1.8 °C 1023.9 hPa NW 50.0 km/h 50.0 km/h 60 % 0.0 mm 60.0 W/m2 CLR
17:10 9.1 °C 1.9 °C 1024.3 hPa NW 50.0 km/h 50.0 km/h 61 % 0.0 mm 35.0 W/m2 CLR
17:15 8.9 °C 1.8 °C 1024.3 hPa NW 51.8 km/h 51.8 km/h 61 % 0.0 mm 23.0 W/m2 OVC
17:20 8.8 °C 1.9 °C 1024.3 hPa NW 46.3 km/h 46.3 km/h 62 % 0.0 mm 18.0 W/m2 OVC
17:25 8.6 °C 1.9 °C 1024.3 hPa NW 33.3 km/h 33.3 km/h 63 % 0.0 mm 14.0 W/m2 OVC
17:30 8.5 °C 1.8 °C 1024.3 hPa NW 43.4 km/h 43.4 km/h 63 % 0.0 mm 14.0 W/m2 OVC
17:35 8.4 °C 1.7 °C 1024.3 hPa NW 33.3 km/h 33.3 km/h 63 % 0.0 mm 12.0 W/m2 OVC
17:40 8.3 °C 1.9 °C 1024.3 hPa NW 44.4 km/h 44.4 km/h 64 % 0.0 mm 12.0 W/m2 OVC
17:45 8.3 °C 2.1 °C 1024.3 hPa NW 35.4 km/h 35.4 km/h 65 % 0.0 mm 14.0 W/m2 OVC
17:50 8.2 °C 2.0 °C 1024.3 hPa NW 42.6 km/h 42.6 km/h 65 % 0.0 mm 11.0 W/m2 OVC
17:55 8.2 °C 2.2 °C 1024.3 hPa NW 50.0 km/h 50.0 km/h 66 % 0.0 mm 7.0 W/m2 OVC
18:00 8.2 °C 2.2 °C 1024.3 hPa NW 40.7 km/h 40.7 km/h 66 % 0.0 mm 0.0 W/m2 CLR
18:05 8.1 °C 2.3 °C 1024.6 hPa NW 40.7 km/h 40.7 km/h 67 % 0.0 mm 0.0 W/m2 CLR
18:10 8.0 °C 2.2 °C 1024.6 hPa NW 44.4 km/h 44.4 km/h 67 % 0.0 mm 0.0 W/m2 CLR
18:15 7.9 °C 2.3 °C 1024.6 hPa NW 46.3 km/h 46.3 km/h 68 % 0.0 mm 0.0 W/m2 CLR
18:20 7.8 °C 2.2 °C 1024.6 hPa NW 31.5 km/h 31.5 km/h 68 % 0.0 mm 0.0 W/m2 CLR
18:25 7.7 °C 2.4 °C 1024.6 hPa NW 42.6 km/h 42.6 km/h 69 % 0.0 mm 0.0 W/m2 CLR
18:30 7.7 °C 2.4 °C 1024.6 hPa NW 33.3 km/h 33.3 km/h 69 % 0.0 mm 0.0 W/m2 CLR
18:35 7.7 °C 2.3 °C 1024.9 hPa NW 31.5 km/h 31.5 km/h 69 % 0.0 mm 0.0 W/m2 CLR
18:40 7.6 °C 2.4 °C 1024.9 hPa NW 31.5 km/h 31.5 km/h 70 % 0.0 mm 0.0 W/m2 CLR
18:45 7.4 °C 2.5 °C 1024.9 hPa NW 29.0 km/h 29.0 km/h 71 % 0.0 mm 0.0 W/m2 CLR
18:50 7.4 °C 2.4 °C 1024.9 hPa NW 35.2 km/h 35.2 km/h 71 % 0.0 mm 0.0 W/m2 CLR
18:55 7.3 °C 2.6 °C 1024.9 hPa NW 31.5 km/h 31.9 km/h 72 % 0.0 mm 0.0 W/m2 CLR
19:00 7.3 °C 2.6 °C 1024.9 hPa NW 42.6 km/h 42.6 km/h 72 % 0.0 mm 0.0 W/m2 CLR
19:05 7.2 °C 2.5 °C 1024.9 hPa NW 25.9 km/h 25.9 km/h 72 % 0.0 mm 0.0 W/m2 CLR
19:10 7.2 °C 2.7 °C 1024.9 hPa NW 33.8 km/h 33.8 km/h 73 % 0.0 mm 0.0 W/m2 CLR
19:15 7.2 °C 2.7 °C 1024.9 hPa NW 42.6 km/h 42.6 km/h 73 % 0.0 mm 0.0 W/m2 CLR
19:20 7.2 °C 2.7 °C 1024.9 hPa NW 44.4 km/h 44.4 km/h 73 % 0.0 mm 0.0 W/m2 CLR
19:25 7.2 °C 2.7 °C 1024.9 hPa NW 50.0 km/h 50.0 km/h 73 % 0.0 mm 0.0 W/m2 CLR
19:30 7.2 °C 2.7 °C 1024.9 hPa NW 44.4 km/h 44.4 km/h 73 % 0.0 mm 0.0 W/m2 CLR
19:35 7.1 °C 2.6 °C 1024.9 hPa NW 38.9 km/h 38.9 km/h 73 % 0.0 mm 0.0 W/m2 CLR
19:40 7.1 °C 2.6 °C 1024.9 hPa NW 40.7 km/h 40.7 km/h 73 % 0.0 mm 0.0 W/m2 CLR
19:45 7.0 °C 2.5 °C 1024.9 hPa NW 35.2 km/h 35.2 km/h 73 % 0.0 mm 0.0 W/m2 CLR
19:50 7.0 °C 2.7 °C 1024.9 hPa NW 42.6 km/h 42.6 km/h 74 % 0.0 mm 0.0 W/m2 CLR
19:55 7.0 °C 2.7 °C 1024.9 hPa NW 44.4 km/h 44.4 km/h 74 % 0.0 mm 0.0 W/m2 CLR
19:56 6.9 °C 2.6 °C 1024.9 hPa NW 38.9 km/h 38.9 km/h 74 % 0.0 mm 0.0 W/m2 CLR
20:01 6.9 °C 2.6 °C 1024.9 hPa NW 33.8 km/h 33.8 km/h 74 % 0.0 mm 0.0 W/m2 CLR
20:06 6.9 °C 2.6 °C 1024.9 hPa NW 42.6 km/h 42.6 km/h 74 % 0.0 mm 0.0 W/m2 CLR
20:11 6.9 °C 2.6 °C 1024.9 hPa NW 48.1 km/h 48.1 km/h 74 % 0.0 mm 0.0 W/m2 CLR
20:16 6.9 °C 2.6 °C 1024.9 hPa NW 38.9 km/h 38.9 km/h 74 % 0.0 mm 0.0 W/m2 CLR
20:21 6.8 °C 2.5 °C 1024.9 hPa NW 40.7 km/h 40.7 km/h 74 % 0.0 mm 0.0 W/m2 CLR
20:26 6.8 °C 2.5 °C 1024.9 hPa NW 51.8 km/h 51.8 km/h 74 % 0.0 mm 0.0 W/m2 CLR
20:31 6.8 °C 2.4 °C 1024.9 hPa NW 37.0 km/h 37.0 km/h 74 % 0.0 mm 0.0 W/m2 CLR
20:36 6.8 °C 2.4 °C 1024.9 hPa NW 42.6 km/h 42.6 km/h 74 % 0.0 mm 0.0 W/m2 CLR
20:41 6.8 °C 2.4 °C 1024.9 hPa NW 35.2 km/h 35.2 km/h 74 % 0.0 mm 0.0 W/m2 CLR
20:46 6.7 °C 2.4 °C 1024.9 hPa NW 35.4 km/h 35.4 km/h 74 % 0.0 mm 0.0 W/m2 CLR
20:51 6.8 °C 2.4 °C 1024.9 hPa NW 38.9 km/h 38.9 km/h 74 % 0.0 mm 0.0 W/m2 CLR
20:56 6.8 °C 2.5 °C 1024.9 hPa NNW 42.6 km/h 42.6 km/h 74 % 0.0 mm 0.0 W/m2 CLR
21:01 6.8 °C 2.4 °C 1024.9 hPa NW 42.6 km/h 42.6 km/h 74 % 0.0 mm 0.0 W/m2 CLR
21:06 6.8 °C 2.4 °C 1024.9 hPa NW 38.6 km/h 38.6 km/h 74 % 0.0 mm 0.0 W/m2 CLR
21:11 6.7 °C 2.6 °C 1024.9 hPa NW 38.9 km/h 38.9 km/h 75 % 0.0 mm 0.0 W/m2 CLR
21:16 6.8 °C 2.8 °C 1024.9 hPa NW 31.5 km/h 31.5 km/h 76 % 0.0 mm 0.0 W/m2 CLR
21:21 6.8 °C 2.8 °C 1024.9 hPa NW 50.0 km/h 50.0 km/h 76 % 0.0 mm 0.0 W/m2 CLR
21:26 6.8 °C 2.9 °C 1024.6 hPa NW 50.0 km/h 50.0 km/h 76 % 0.0 mm 0.0 W/m2 CLR
21:31 6.8 °C 2.9 °C 1024.6 hPa NW 46.7 km/h 46.7 km/h 76 % 0.0 mm 0.0 W/m2 CLR
21:36 6.9 °C 2.9 °C 1024.9 hPa NW 40.7 km/h 40.7 km/h 76 % 0.0 mm 0.0 W/m2 CLR
21:41 6.8 °C 2.9 °C 1024.9 hPa NW 42.6 km/h 42.6 km/h 76 % 0.0 mm 0.0 W/m2 CLR
21:46 6.8 °C 2.8 °C 1024.9 hPa NW 33.3 km/h 33.3 km/h 76 % 0.0 mm 0.0 W/m2 CLR
21:51 6.8 °C 3.0 °C 1024.9 hPa NW 33.8 km/h 33.8 km/h 77 % 0.0 mm 0.0 W/m2 CLR
21:56 6.7 °C 2.9 °C 1024.9 hPa NW 32.2 km/h 32.2 km/h 77 % 0.0 mm 0.0 W/m2 CLR
22:01 6.7 °C 3.1 °C 1024.9 hPa WNW 30.6 km/h 30.6 km/h 78 % 0.0 mm 0.0 W/m2 CLR
22:06 6.7 °C 3.2 °C 1024.9 hPa WNW 32.2 km/h 32.2 km/h 78 % 0.0 mm 0.0 W/m2 CLR
22:11 6.8 °C 3.4 °C 1024.6 hPa WNW 33.3 km/h 33.3 km/h 79 % 0.0 mm 0.0 W/m2 CLR
22:16 6.8 °C 3.4 °C 1024.9 hPa WNW 35.2 km/h 35.2 km/h 79 % 0.0 mm 0.0 W/m2 CLR
22:21 6.7 °C 3.3 °C 1024.9 hPa WNW 25.9 km/h 25.9 km/h 79 % 0.0 mm 0.0 W/m2 CLR
22:26 6.7 °C 3.5 °C 1024.9 hPa NW 29.6 km/h 29.6 km/h 80 % 0.0 mm 0.0 W/m2 CLR
22:31 6.7 °C 3.5 °C 1024.9 hPa WNW 31.5 km/h 31.5 km/h 80 % 0.0 mm 0.0 W/m2 CLR
22:36 6.7 °C 3.5 °C 1024.9 hPa NW 27.8 km/h 27.8 km/h 80 % 0.0 mm 0.0 W/m2 CLR
22:41 6.7 °C 3.5 °C 1024.9 hPa NW 25.7 km/h 25.7 km/h 80 % 0.0 mm 0.0 W/m2 CLR
22:46 6.7 °C 3.5 °C 1024.9 hPa NW 20.4 km/h 20.4 km/h 80 % 0.0 mm 0.0 W/m2 CLR
22:51 6.7 °C 3.5 °C 1024.9 hPa NW 24.1 km/h 24.1 km/h 80 % 0.0 mm 0.0 W/m2 CLR
22:56 6.8 °C 3.6 °C 1024.9 hPa NW 37.0 km/h 37.0 km/h 80 % 0.0 mm 0.0 W/m2 CLR
23:01 6.9 °C 3.7 °C 1024.6 hPa NW 42.6 km/h 42.6 km/h 80 % 0.0 mm 0.0 W/m2 CLR
23:06 6.9 °C 3.7 °C 1024.6 hPa NW 29.6 km/h 29.6 km/h 80 % 0.0 mm 0.0 W/m2 CLR
23:11 6.9 °C 3.7 °C 1024.6 hPa NW 27.8 km/h 27.8 km/h 80 % 0.0 mm 0.0 W/m2 CLR
23:16 6.9 °C 3.7 °C 1024.6 hPa NW 27.8 km/h 27.8 km/h 80 % 0.0 mm 0.0 W/m2 CLR
23:21 7.1 °C 3.8 °C 1024.6 hPa NW 37.0 km/h 37.0 km/h 80 % 0.0 mm 0.0 W/m2 CLR
23:26 7.0 °C 3.8 °C 1024.6 hPa NW 37.0 km/h 37.0 km/h 80 % 0.0 mm 0.0 W/m2 CLR
23:31 7.0 °C 3.8 °C 1024.6 hPa NW 33.3 km/h 33.3 km/h 80 % 0.0 mm 0.0 W/m2 CLR
23:36 7.0 °C 3.8 °C 1024.6 hPa NW 38.9 km/h 38.9 km/h 80 % 0.0 mm 0.0 W/m2 CLR
23:41 7.0 °C 3.8 °C 1024.6 hPa NW 31.5 km/h 31.5 km/h 80 % 0.0 mm 0.0 W/m2 CLR
23:46 6.9 °C 3.7 °C 1024.6 hPa NW 24.1 km/h 24.1 km/h 80 % 0.0 mm 0.0 W/m2 CLR
23:51 6.9 °C 3.8 °C 1024.6 hPa NW 27.8 km/h 27.8 km/h 81 % 0.0 mm 0.0 W/m2 CLR
23:56 6.9 °C 3.9 °C 1024.6 hPa NW 37.0 km/h 37.0 km/h 81 % 0.0 mm 0.0 W/m2 CLR
Lo Temps de Massalio
Compliments of Weather Underground - 1.25 mb